Time;durP1;ratioP1;P1;durP2;ratioP2;P2;SDS_P1;SDS_P2;PMS_P1;PMS_P2;Temp;Humidity;BMP_temperature;BMP_pressure;BME280_temperature;BME280_humidity;BME280_pressure;Samples;Min_cycle;Max_cycle;Signal;HPM_P1;HPM_P2
2021/08/26 00:00:45;;;;;;;;;;;;;;;;;;2096226;27;4147;-67
2021/08/26 00:05:51;;;;;;;;;;;;;;;;;;2102487;27;3705;-68
2021/08/26 00:06:52;;;;;;;;;;;;;;;;;;2107532;27;1157;-67
2021/08/26 00:07:53;;;;;;;;;;;;;;;;;;2107708;27;3583;-68
2021/08/26 00:08:53;;;;;;;;;;;;;;;;;;2107768;27;3074;-68
2021/08/26 00:11:08;;;;;;;;;;;;;;;;;;2089825;27;4209;-67
2021/08/26 00:12:11;;;;;;;;;;;;;;;;;;2092411;28;4441;-68
2021/08/26 00:13:12;;;;;;;;;;;;;;;;;;2096827;28;3762;-66
2021/08/26 00:14:12;;;;;;;;;;;;;;;;;;2096307;28;4023;-69
2021/08/26 00:15:13;;;;;;;;;;;;;;;;;;2094922;28;3786;-68
2021/08/26 00:16:24;;;;;;;;;;;;;;;;;;2092040;28;1563;-66
2021/08/26 00:17:24;;;;;;;;;;;;;;;;;;2097515;28;3904;-66
2021/08/26 00:18:25;;;;;;;;;;;;;;;;;;2097360;28;3941;-67
2021/08/26 00:19:25;;;;;;;;;;;;;;;;;;2098716;28;3039;-68
2021/08/26 00:20:26;;;;;;;;;;;;;;;;;;2093958;27;3912;-68
2021/08/26 00:21:29;;;;;;;;;;;;;;;;;;2091686;28;4407;-67
2021/08/26 00:22:30;;;;;;;;;;;;;;;;;;2096613;28;3373;-67
2021/08/26 00:23:31;;;;;;;;;;;;;;;;;;2097966;28;1032;-67
2021/08/26 00:24:31;;;;;;;;;;;;;;;;;;2086763;28;3572;-68
2021/08/26 00:25:32;;;;;;;;;;;;;;;;;;2098327;28;4082;-68
2021/08/26 00:26:32;;;;;;;;;;;;;;;;;;2095531;28;2356;-66
2021/08/26 00:27:33;;;;;;;;;;;;;;;;;;2097131;28;3385;-67
2021/08/26 00:28:33;;;;;;;;;;;;;;;;;;2093861;28;1224;-68
2021/08/26 00:31:00;;;;;;;;;;;;;;;;;;2091489;27;4223;-67
2021/08/26 00:32:00;;;;;;;;;;;;;;;;;;2089685;28;1236;-67
2021/08/26 00:33:01;;;;;;;;;;;;;;;;;;2086497;28;4313;-67
2021/08/26 00:34:02;;;;;;;;;;;;;;;;;;2087873;28;4218;-68
2021/08/26 00:35:03;;;;;;;;;;;;;;;;;;2086154;28;3987;-68
2021/08/26 00:37:30;;;;;;;;;;;;;;;;;;2095637;27;2587;-68
2021/08/26 00:38:31;;;;;;;;;;;;;;;;;;2092822;28;3639;-67
2021/08/26 00:39:32;;;;;;;;;;;;;;;;;;2094642;28;3966;-68
2021/08/26 00:40:32;;;;;;;;;;;;;;;;;;2088723;28;3807;-67
2021/08/26 00:41:33;;;;;;;;;;;;;;;;;;2094904;28;4513;-67
2021/08/26 00:42:33;;;;;;;;;;;;;;;;;;2098087;28;1064;-68
2021/08/26 00:43:34;;;;;;;;;;;;;;;;;;2095596;28;4198;-68
2021/08/26 00:44:34;;;;;;;;;;;;;;;;;;2096135;28;3288;-67
2021/08/26 00:45:35;;;;;;;;;;;;;;;;;;2095998;28;4024;-67
2021/08/26 00:46:36;;;;;;;;;;;;;;;;;;2096158;28;4140;-68
2021/08/26 00:47:37;;;;;;;;;;;;;;;;;;2096230;28;4121;-68
2021/08/26 00:48:37;;;;;;;;;;;;;;;;;;2097815;28;2380;-67
2021/08/26 00:49:38;;;;;;;;;;;;;;;;;;2096638;28;4051;-67
2021/08/26 00:50:39;;;;;;;;;;;;;;;;;;2093810;28;3104;-68
2021/08/26 00:51:39;;;;;;;;;;;;;;;;;;2094647;28;3941;-67
2021/08/26 00:52:40;;;;;;;;;;;;;;;;;;2097520;28;3363;-68
2021/08/26 00:53:40;;;;;;;;;;;;;;;;;;2097035;28;2893;-66
2021/08/26 00:54:41;;;;;;;;;;;;;;;;;;2096612;28;1064;-67
2021/08/26 00:55:41;;;;;;;;;;;;;;;;;;2097971;28;1206;-69
2021/08/26 00:56:43;;;;;;;;;;;;;;;;;;2097718;28;1902;-67
2021/08/26 00:57:43;;;;;;;;;;;;;;;;;;2097040;28;3980;-68
2021/08/26 00:58:44;;;;;;;;;;;;;;;;;;2097670;28;3250;-68
2021/08/26 00:59:44;;;;;;;;;;;;;;;;;;2093457;28;1921;-67
2021/08/26 01:00:45;;;;;;;;;;;;;;;;;;2087053;28;3665;-68
2021/08/26 01:01:45;;;;;;;;;;;;;;;;;;2096096;28;2594;-67
2021/08/26 01:02:46;;;;;;;;;;;;;;;;;;2094434;28;3880;-67
2021/08/26 01:03:46;;;;;;;;;;;;;;;;;;2095422;28;2172;-68
2021/08/26 01:04:48;;;;;;;;;;;;;;;;;;2094138;28;3814;-67
2021/08/26 01:05:48;;;;;;;;;;;;;;;;;;2095669;28;1107;-68
2021/08/26 01:06:49;;;;;;;;;;;;;;;;;;2096834;28;3364;-68
2021/08/26 01:07:50;;;;;;;;;;;;;;;;;;2098189;28;3573;-66
2021/08/26 01:08:51;;;;;;;;;;;;;;;;;;2097466;28;1763;-67
2021/08/26 01:11:05;;;;;;;;;;;;;;;;;;2097427;27;3086;-67
2021/08/26 01:12:05;;;;;;;;;;;;;;;;;;2096595;28;3887;-66
2021/08/26 01:13:06;;;;;;;;;;;;;;;;;;2097072;28;4026;-68
2021/08/26 01:14:06;;;;;;;;;;;;;;;;;;2096089;28;3790;-67
2021/08/26 01:15:07;;;;;;;;;;;;;;;;;;2093329;28;4142;-68
2021/08/26 01:16:08;;;;;;;;;;;;;;;;;;2095549;28;4449;-67
2021/08/26 01:17:09;;;;;;;;;;;;;;;;;;2097117;28;2839;-67
2021/08/26 01:18:10;;;;;;;;;;;;;;;;;;2097991;28;3500;-67
2021/08/26 01:19:10;;;;;;;;;;;;;;;;;;2096916;28;1253;-67
2021/08/26 01:20:11;;;;;;;;;;;;;;;;;;2091048;28;3564;-68
2021/08/26 01:21:12;;;;;;;;;;;;;;;;;;2095985;28;2223;-67
2021/08/26 01:22:13;;;;;;;;;;;;;;;;;;2097563;28;1155;-68
2021/08/26 01:23:13;;;;;;;;;;;;;;;;;;2094908;28;3219;-67
2021/08/26 01:24:15;;;;;;;;;;;;;;;;;;2094453;28;3098;-67
2021/08/26 01:25:15;;;;;;;;;;;;;;;;;;2094815;28;4270;-68
2021/08/26 01:26:16;;;;;;;;;;;;;;;;;;2095836;28;1725;-67
2021/08/26 01:27:16;;;;;;;;;;;;;;;;;;2097130;28;1119;-67
2021/08/26 01:28:17;;;;;;;;;;;;;;;;;;2092896;28;1164;-67
2021/08/26 01:29:17;;;;;;;;;;;;;;;;;;2095798;28;3869;-67
2021/08/26 01:30:19;;;;;;;;;;;;;;;;;;2082650;28;4024;-68
2021/08/26 01:31:19;;;;;;;;;;;;;;;;;;2096716;28;4107;-66
2021/08/26 01:32:20;;;;;;;;;;;;;;;;;;2097239;28;3988;-66
2021/08/26 01:33:20;;;;;;;;;;;;;;;;;;2097066;28;4028;-68
2021/08/26 01:35:37;;;;;;;;;;;;;;;;;;2092097;28;4346;-67
2021/08/26 01:36:37;;;;;;;;;;;;;;;;;;2095429;28;4913;-68
2021/08/26 01:37:38;;;;;;;;;;;;;;;;;;2096012;28;3747;-67
2021/08/26 01:38:38;;;;;;;;;;;;;;;;;;2096473;28;3879;-66
2021/08/26 01:39:39;;;;;;;;;;;;;;;;;;2090756;28;3908;-68
2021/08/26 01:40:39;;;;;;;;;;;;;;;;;;2092461;28;3442;-68
2021/08/26 01:41:40;;;;;;;;;;;;;;;;;;2095850;28;3481;-67
2021/08/26 01:42:44;;;;;;;;;;;;;;;;;;2097802;28;3458;-66
2021/08/26 01:43:44;;;;;;;;;;;;;;;;;;2094025;28;4259;-68
2021/08/26 01:44:46;;;;;;;;;;;;;;;;;;2093707;28;3904;-68
2021/08/26 01:45:47;;;;;;;;;;;;;;;;;;2097157;28;3868;-68
2021/08/26 01:46:48;;;;;;;;;;;;;;;;;;2095802;28;3864;-68
2021/08/26 01:47:48;;;;;;;;;;;;;;;;;;2096383;28;1635;-68
2021/08/26 01:48:49;;;;;;;;;;;;;;;;;;2096791;28;4226;-68
2021/08/26 01:49:51;;;;;;;;;;;;;;;;;;2094003;28;4469;-67
2021/08/26 01:50:52;;;;;;;;;;;;;;;;;;2093018;28;4191;-66
2021/08/26 01:51:52;;;;;;;;;;;;;;;;;;2095853;28;2470;-68
2021/08/26 01:52:54;;;;;;;;;;;;;;;;;;2096399;28;4043;-66
2021/08/26 01:53:54;;;;;;;;;;;;;;;;;;2094907;28;3333;-68
2021/08/26 01:54:55;;;;;;;;;;;;;;;;;;2094448;28;3904;-68
2021/08/26 01:55:55;;;;;;;;;;;;;;;;;;2095757;28;3909;-68
2021/08/26 01:56:56;;;;;;;;;;;;;;;;;;2090253;28;1532;-70
2021/08/26 01:57:58;;;;;;;;;;;;;;;;;;2093838;28;1260;-68
2021/08/26 01:58:58;;;;;;;;;;;;;;;;;;2096768;28;3819;-68
2021/08/26 02:01:25;;;;;;;;;;;;;;;;;;2088856;27;4145;-68
2021/08/26 02:02:26;;;;;;;;;;;;;;;;;;2088958;28;3721;-67
2021/08/26 02:03:26;;;;;;;;;;;;;;;;;;2086794;28;3944;-67
2021/08/26 02:04:27;;;;;;;;;;;;;;;;;;2088354;28;1914;-66
2021/08/26 02:05:27;;;;;;;;;;;;;;;;;;2086492;28;1123;-67
2021/08/26 02:06:28;;;;;;;;;;;;;;;;;;2086896;28;1530;-68
2021/08/26 02:07:28;;;;;;;;;;;;;;;;;;2088994;28;3060;-68
2021/08/26 02:08:29;;;;;;;;;;;;;;;;;;2088960;28;4238;-67
2021/08/26 02:09:30;;;;;;;;;;;;;;;;;;2088342;28;1069;-66
2021/08/26 02:10:31;;;;;;;;;;;;;;;;;;2082416;28;4023;-66
2021/08/26 02:11:31;;;;;;;;;;;;;;;;;;2089412;28;1405;-68
2021/08/26 02:12:32;;;;;;;;;;;;;;;;;;2089252;28;1087;-68
2021/08/26 02:13:32;;;;;;;;;;;;;;;;;;2080927;28;1142;-70
2021/08/26 02:14:34;;;;;;;;;;;;;;;;;;2087135;28;3892;-70
2021/08/26 02:15:34;;;;;;;;;;;;;;;;;;2077296;28;3528;-70
2021/08/26 02:16:35;;;;;;;;;;;;;;;;;;2083541;28;2973;-70
2021/08/26 02:17:36;;;;;;;;;;;;;;;;;;2087191;28;4092;-70
2021/08/26 02:18:36;;;;;;;;;;;;;;;;;;2088048;28;3773;-70
2021/08/26 02:19:37;;;;;;;;;;;;;;;;;;2088242;28;3126;-71
2021/08/26 02:20:37;;;;;;;;;;;;;;;;;;2084965;28;2689;-70
2021/08/26 02:21:38;;;;;;;;;;;;;;;;;;2088076;28;1248;-70
2021/08/26 02:22:38;;;;;;;;;;;;;;;;;;2088592;28;3299;-70
2021/08/26 02:23:40;;;;;;;;;;;;;;;;;;2087030;28;3984;-70
2021/08/26 02:24:40;;;;;;;;;;;;;;;;;;2087713;28;3256;-70
2021/08/26 02:25:41;;;;;;;;;;;;;;;;;;2087723;28;3867;-70
2021/08/26 02:26:41;;;;;;;;;;;;;;;;;;2088606;28;4029;-70
2021/08/26 02:27:42;;;;;;;;;;;;;;;;;;2088712;28;3764;-69
2021/08/26 02:28:43;;;;;;;;;;;;;;;;;;2087925;28;3916;-70
2021/08/26 02:29:43;;;;;;;;;;;;;;;;;;2083857;28;2915;-70
2021/08/26 02:30:44;;;;;;;;;;;;;;;;;;2081245;28;4109;-70
2021/08/26 02:31:46;;;;;;;;;;;;;;;;;;2087924;28;2269;-70
2021/08/26 02:32:46;;;;;;;;;;;;;;;;;;2089984;28;2517;-70
2021/08/26 02:33:47;;;;;;;;;;;;;;;;;;2087460;28;3691;-70
2021/08/26 02:34:47;;;;;;;;;;;;;;;;;;2088623;28;1080;-69
2021/08/26 02:35:48;;;;;;;;;;;;;;;;;;2087562;28;3996;-70
2021/08/26 02:36:49;;;;;;;;;;;;;;;;;;2089034;28;1700;-71
2021/08/26 02:37:49;;;;;;;;;;;;;;;;;;2089486;28;1691;-70
2021/08/26 02:38:50;;;;;;;;;;;;;;;;;;2085548;28;3238;-70
2021/08/26 02:39:51;;;;;;;;;;;;;;;;;;2079819;28;4186;-71
2021/08/26 02:40:52;;;;;;;;;;;;;;;;;;2081831;28;4143;-70
2021/08/26 02:41:52;;;;;;;;;;;;;;;;;;2089021;28;1318;-70
2021/08/26 02:42:54;;;;;;;;;;;;;;;;;;2086109;28;3740;-67
2021/08/26 02:43:54;;;;;;;;;;;;;;;;;;2086821;28;1101;-68
2021/08/26 02:44:55;;;;;;;;;;;;;;;;;;2084593;28;3312;-67
2021/08/26 02:45:55;;;;;;;;;;;;;;;;;;2087232;28;3273;-67
2021/08/26 02:46:56;;;;;;;;;;;;;;;;;;2088370;28;3562;-67
2021/08/26 02:47:56;;;;;;;;;;;;;;;;;;2088753;28;3060;-66
2021/08/26 02:48:58;;;;;;;;;;;;;;;;;;2087981;28;4274;-66
2021/08/26 02:49:58;;;;;;;;;;;;;;;;;;2081220;28;1510;-67
2021/08/26 02:50:59;;;;;;;;;;;;;;;;;;2088400;28;1668;-67
2021/08/26 02:51:59;;;;;;;;;;;;;;;;;;2089264;28;1273;-66
2021/08/26 02:53:01;;;;;;;;;;;;;;;;;;2088315;28;2360;-67
2021/08/26 02:54:01;;;;;;;;;;;;;;;;;;2088552;28;1695;-67
2021/08/26 02:55:02;;;;;;;;;;;;;;;;;;2088904;28;3941;-67
2021/08/26 02:56:03;;;;;;;;;;;;;;;;;;2089074;28;2124;-67
2021/08/26 02:57:04;;;;;;;;;;;;;;;;;;2089373;28;2386;-67
2021/08/26 02:58:04;;;;;;;;;;;;;;;;;;2082154;28;2291;-67
2021/08/26 02:59:05;;;;;;;;;;;;;;;;;;2088330;28;1161;-67
2021/08/26 03:00:05;;;;;;;;;;;;;;;;;;2074414;28;4162;-67
2021/08/26 03:01:06;;;;;;;;;;;;;;;;;;2081485;28;4131;-67
2021/08/26 03:02:06;;;;;;;;;;;;;;;;;;2089580;28;3066;-67
2021/08/26 03:03:07;;;;;;;;;;;;;;;;;;2087560;28;2203;-67
2021/08/26 03:04:09;;;;;;;;;;;;;;;;;;2087503;28;3589;-67
2021/08/26 03:05:09;;;;;;;;;;;;;;;;;;2084770;28;1908;-66
2021/08/26 03:06:10;;;;;;;;;;;;;;;;;;2087402;28;3652;-67
2021/08/26 03:07:10;;;;;;;;;;;;;;;;;;2089156;28;3270;-67
2021/08/26 03:08:13;;;;;;;;;;;;;;;;;;2088268;28;4040;-67
2021/08/26 03:09:14;;;;;;;;;;;;;;;;;;2084939;28;1195;-67
2021/08/26 03:10:15;;;;;;;;;;;;;;;;;;2080331;28;3713;-67
2021/08/26 03:11:15;;;;;;;;;;;;;;;;;;2080880;28;4109;-66
2021/08/26 03:12:16;;;;;;;;;;;;;;;;;;2086786;28;3830;-67
2021/08/26 03:13:16;;;;;;;;;;;;;;;;;;2081623;28;4032;-67
2021/08/26 03:14:17;;;;;;;;;;;;;;;;;;2083714;28;4219;-68
2021/08/26 03:15:17;;;;;;;;;;;;;;;;;;2079721;28;1916;-67
2021/08/26 03:16:18;;;;;;;;;;;;;;;;;;2081381;28;1219;-67
2021/08/26 03:17:18;;;;;;;;;;;;;;;;;;2082258;28;1174;-67
2021/08/26 03:18:20;;;;;;;;;;;;;;;;;;2081930;28;4425;-67
2021/08/26 03:19:20;;;;;;;;;;;;;;;;;;2083070;28;1022;-68
2021/08/26 03:20:21;;;;;;;;;;;;;;;;;;2077586;28;3777;-67
2021/08/26 03:21:21;;;;;;;;;;;;;;;;;;2081184;28;1930;-68
2021/08/26 03:22:23;;;;;;;;;;;;;;;;;;2077286;28;3377;-68
2021/08/26 03:23:23;;;;;;;;;;;;;;;;;;2079291;28;3381;-68
2021/08/26 03:24:24;;;;;;;;;;;;;;;;;;2081944;28;1173;-68
2021/08/26 03:25:25;;;;;;;;;;;;;;;;;;2083706;28;1907;-68
2021/08/26 03:26:26;;;;;;;;;;;;;;;;;;2081044;28;2597;-68
2021/08/26 03:27:27;;;;;;;;;;;;;;;;;;2081969;28;1972;-68
2021/08/26 03:28:28;;;;;;;;;;;;;;;;;;2078082;28;3394;-67
2021/08/26 03:29:28;;;;;;;;;;;;;;;;;;2081904;28;2825;-67
2021/08/26 03:30:29;;;;;;;;;;;;;;;;;;2073501;28;3789;-66
2021/08/26 03:31:29;;;;;;;;;;;;;;;;;;2081756;28;1605;-68
2021/08/26 03:32:30;;;;;;;;;;;;;;;;;;2079226;28;2408;-67
2021/08/26 03:33:30;;;;;;;;;;;;;;;;;;2081133;28;3720;-66
2021/08/26 03:34:32;;;;;;;;;;;;;;;;;;2070862;28;3617;-68
2021/08/26 03:35:32;;;;;;;;;;;;;;;;;;2078773;28;1411;-68
2021/08/26 03:36:33;;;;;;;;;;;;;;;;;;2081421;28;4071;-68
2021/08/26 03:37:33;;;;;;;;;;;;;;;;;;2081152;28;3634;-67
2021/08/26 03:38:34;;;;;;;;;;;;;;;;;;2079365;28;1110;-68
2021/08/26 03:39:34;;;;;;;;;;;;;;;;;;2078030;28;1157;-67
2021/08/26 03:40:35;;;;;;;;;;;;;;;;;;2077414;28;3746;-67
2021/08/26 03:42:40;;;;;;;;;;;;;;;;;;2083063;27;1879;-67
2021/08/26 03:43:40;;;;;;;;;;;;;;;;;;2077329;28;2694;-66
2021/08/26 03:44:42;;;;;;;;;;;;;;;;;;2078707;28;3409;-67
2021/08/26 03:45:42;;;;;;;;;;;;;;;;;;2081343;28;3928;-68
2021/08/26 03:46:43;;;;;;;;;;;;;;;;;;2077311;28;3982;-68
2021/08/26 03:47:43;;;;;;;;;;;;;;;;;;2085498;28;3762;-67
2021/08/26 03:48:44;;;;;;;;;;;;;;;;;;2084386;28;3359;-67
2021/08/26 03:49:45;;;;;;;;;;;;;;;;;;2085008;28;3533;-67
2021/08/26 03:50:46;;;;;;;;;;;;;;;;;;2079071;28;3140;-68
2021/08/26 03:51:46;;;;;;;;;;;;;;;;;;2080237;27;1361;-67
2021/08/26 03:52:47;;;;;;;;;;;;;;;;;;2085038;28;1064;-67
2021/08/26 03:53:47;;;;;;;;;;;;;;;;;;2081884;28;3522;-66
2021/08/26 03:54:48;;;;;;;;;;;;;;;;;;2079835;28;3519;-66
2021/08/26 03:55:49;;;;;;;;;;;;;;;;;;2085124;27;3093;-67
2021/08/26 03:56:49;;;;;;;;;;;;;;;;;;2079215;27;4353;-67
2021/08/26 03:57:51;;;;;;;;;;;;;;;;;;2084636;28;3392;-67
2021/08/26 03:58:51;;;;;;;;;;;;;;;;;;2084944;27;4272;-68
2021/08/26 03:59:52;;;;;;;;;;;;;;;;;;2075181;27;2286;-67
2021/08/26 04:00:53;;;;;;;;;;;;;;;;;;2081668;28;3802;-67
2021/08/26 04:01:54;;;;;;;;;;;;;;;;;;2083570;28;3571;-67
2021/08/26 04:02:54;;;;;;;;;;;;;;;;;;2084816;28;1272;-66
2021/08/26 04:03:55;;;;;;;;;;;;;;;;;;2084263;28;1062;-66
2021/08/26 04:04:55;;;;;;;;;;;;;;;;;;2081303;27;3809;-68
2021/08/26 04:05:56;;;;;;;;;;;;;;;;;;2084747;28;2012;-68
2021/08/26 04:06:56;;;;;;;;;;;;;;;;;;2086283;27;2864;-67
2021/08/26 04:07:57;;;;;;;;;;;;;;;;;;2084031;28;2927;-66
2021/08/26 04:08:58;;;;;;;;;;;;;;;;;;2080139;28;3130;-68
2021/08/26 04:09:59;;;;;;;;;;;;;;;;;;2074424;28;3674;-68
2021/08/26 04:10:59;;;;;;;;;;;;;;;;;;2083821;27;3545;-69
2021/08/26 04:12:01;;;;;;;;;;;;;;;;;;2084637;28;3022;-68
2021/08/26 04:13:01;;;;;;;;;;;;;;;;;;2084864;27;4978;-67
2021/08/26 04:14:02;;;;;;;;;;;;;;;;;;2083211;28;4093;-67
2021/08/26 04:15:02;;;;;;;;;;;;;;;;;;2079857;27;3741;-68
2021/08/26 04:16:03;;;;;;;;;;;;;;;;;;2084685;28;1172;-68
2021/08/26 04:17:03;;;;;;;;;;;;;;;;;;2084978;27;3787;-67
2021/08/26 04:18:07;;;;;;;;;;;;;;;;;;2083337;27;3797;-68
2021/08/26 04:19:08;;;;;;;;;;;;;;;;;;2082808;28;3857;-67
2021/08/26 04:20:08;;;;;;;;;;;;;;;;;;2078423;27;3702;-67
2021/08/26 04:21:09;;;;;;;;;;;;;;;;;;2080582;28;1175;-68
2021/08/26 04:22:09;;;;;;;;;;;;;;;;;;2085007;28;3182;-68
2021/08/26 04:23:10;;;;;;;;;;;;;;;;;;2085036;27;1107;-67
2021/08/26 04:24:10;;;;;;;;;;;;;;;;;;2082431;28;3636;-66
2021/08/26 04:25:12;;;;;;;;;;;;;;;;;;2084326;28;1818;-67
2021/08/26 04:26:12;;;;;;;;;;;;;;;;;;2083830;28;1050;-68
2021/08/26 04:27:13;;;;;;;;;;;;;;;;;;2085605;28;4052;-68
2021/08/26 04:28:13;;;;;;;;;;;;;;;;;;2080174;28;2689;-68
2021/08/26 04:29:14;;;;;;;;;;;;;;;;;;2084960;28;3862;-67
2021/08/26 04:30:15;;;;;;;;;;;;;;;;;;2071872;27;3836;-67
2021/08/26 04:31:15;;;;;;;;;;;;;;;;;;2082024;28;1684;-67
2021/08/26 04:32:16;;;;;;;;;;;;;;;;;;2084683;28;2820;-67
2021/08/26 04:33:16;;;;;;;;;;;;;;;;;;2084294;28;1175;-68
2021/08/26 04:34:17;;;;;;;;;;;;;;;;;;2084197;27;1024;-67
2021/08/26 04:35:17;;;;;;;;;;;;;;;;;;2081589;27;3740;-67
2021/08/26 04:36:19;;;;;;;;;;;;;;;;;;2083607;27;3778;-68
2021/08/26 04:37:20;;;;;;;;;;;;;;;;;;2079852;28;2017;-67
2021/08/26 04:38:20;;;;;;;;;;;;;;;;;;2077148;27;2822;-67
2021/08/26 04:39:22;;;;;;;;;;;;;;;;;;2079395;27;1091;-67
2021/08/26 04:40:22;;;;;;;;;;;;;;;;;;2079379;28;3904;-67
2021/08/26 04:41:23;;;;;;;;;;;;;;;;;;2083536;28;1443;-67
2021/08/26 04:42:23;;;;;;;;;;;;;;;;;;2085046;28;1906;-66
2021/08/26 04:43:25;;;;;;;;;;;;;;;;;;2077197;28;3235;-67
2021/08/26 04:44:25;;;;;;;;;;;;;;;;;;2083674;28;3172;-68
2021/08/26 04:45:26;;;;;;;;;;;;;;;;;;2077834;27;3544;-68
2021/08/26 04:46:28;;;;;;;;;;;;;;;;;;2084490;28;2804;-68
2021/08/26 04:47:29;;;;;;;;;;;;;;;;;;2076809;28;1149;-67
2021/08/26 04:48:29;;;;;;;;;;;;;;;;;;2079373;28;4051;-66
2021/08/26 04:49:30;;;;;;;;;;;;;;;;;;2084486;28;3417;-67
2021/08/26 04:50:30;;;;;;;;;;;;;;;;;;2078043;28;4115;-67
2021/08/26 04:51:31;;;;;;;;;;;;;;;;;;2080366;27;2977;-68
2021/08/26 04:52:31;;;;;;;;;;;;;;;;;;2084216;28;3508;-68
2021/08/26 04:53:32;;;;;;;;;;;;;;;;;;2078271;28;1057;-68
2021/08/26 04:54:33;;;;;;;;;;;;;;;;;;2076432;28;1307;-67
2021/08/26 04:55:34;;;;;;;;;;;;;;;;;;2079338;28;1329;-67
2021/08/26 04:56:34;;;;;;;;;;;;;;;;;;2072242;28;2041;-67
2021/08/26 04:57:35;;;;;;;;;;;;;;;;;;2073021;28;3684;-67
2021/08/26 04:58:35;;;;;;;;;;;;;;;;;;2069007;28;3866;-67
2021/08/26 04:59:37;;;;;;;;;;;;;;;;;;2072869;28;1565;-67
2021/08/26 05:00:37;;;;;;;;;;;;;;;;;;2070969;28;4057;-68
2021/08/26 05:01:38;;;;;;;;;;;;;;;;;;2078800;27;1902;-68
2021/08/26 05:02:38;;;;;;;;;;;;;;;;;;2079195;28;1230;-66
2021/08/26 05:03:39;;;;;;;;;;;;;;;;;;2077243;28;1148;-67
2021/08/26 05:04:40;;;;;;;;;;;;;;;;;;2069451;28;1536;-67
2021/08/26 05:05:41;;;;;;;;;;;;;;;;;;2077723;28;3182;-67
2021/08/26 05:06:41;;;;;;;;;;;;;;;;;;2077939;28;1191;-68
2021/08/26 05:07:42;;;;;;;;;;;;;;;;;;2079970;28;1239;-68
2021/08/26 05:08:43;;;;;;;;;;;;;;;;;;2070306;28;3682;-67
2021/08/26 05:09:43;;;;;;;;;;;;;;;;;;2071505;28;4415;-67
2021/08/26 05:10:44;;;;;;;;;;;;;;;;;;2060737;28;4280;-67
2021/08/26 05:11:44;;;;;;;;;;;;;;;;;;2073736;28;1264;-66
2021/08/26 05:12:45;;;;;;;;;;;;;;;;;;2072370;28;3373;-67
2021/08/26 05:13:46;;;;;;;;;;;;;;;;;;2070894;28;3749;-68
2021/08/26 05:14:47;;;;;;;;;;;;;;;;;;2075442;28;3034;-67
2021/08/26 05:15:47;;;;;;;;;;;;;;;;;;2072814;28;3903;-68
2021/08/26 05:16:49;;;;;;;;;;;;;;;;;;2075393;28;1645;-68
2021/08/26 05:17:49;;;;;;;;;;;;;;;;;;2072967;27;3930;-66
2021/08/26 05:18:50;;;;;;;;;;;;;;;;;;2079116;27;4123;-68
2021/08/26 05:19:50;;;;;;;;;;;;;;;;;;2071357;27;3621;-66
2021/08/26 05:20:51;;;;;;;;;;;;;;;;;;2078412;28;4604;-68
2021/08/26 05:21:52;;;;;;;;;;;;;;;;;;2079892;28;1938;-68
2021/08/26 05:22:53;;;;;;;;;;;;;;;;;;2077355;28;3619;-67
2021/08/26 05:23:54;;;;;;;;;;;;;;;;;;2077550;28;4242;-66
2021/08/26 05:24:54;;;;;;;;;;;;;;;;;;2077587;27;4028;-68
2021/08/26 05:25:55;;;;;;;;;;;;;;;;;;2078694;28;4449;-67
2021/08/26 05:26:55;;;;;;;;;;;;;;;;;;2078456;28;1069;-67
2021/08/26 05:27:56;;;;;;;;;;;;;;;;;;2072111;28;4248;-67
2021/08/26 05:28:56;;;;;;;;;;;;;;;;;;2075544;28;4580;-67
2021/08/26 05:29:58;;;;;;;;;;;;;;;;;;2068157;28;4024;-68
2021/08/26 05:30:58;;;;;;;;;;;;;;;;;;2075433;27;2733;-68
2021/08/26 05:31:59;;;;;;;;;;;;;;;;;;2078117;28;3590;-68
2021/08/26 05:32:59;;;;;;;;;;;;;;;;;;2078408;28;2333;-67
2021/08/26 05:34:01;;;;;;;;;;;;;;;;;;2080230;28;3770;-67
2021/08/26 05:35:01;;;;;;;;;;;;;;;;;;2074184;28;3576;-67
2021/08/26 05:36:02;;;;;;;;;;;;;;;;;;2079086;28;4675;-67
2021/08/26 05:37:03;;;;;;;;;;;;;;;;;;2078397;28;4139;-67
2021/08/26 05:38:04;;;;;;;;;;;;;;;;;;2076217;27;4602;-67
2021/08/26 05:39:04;;;;;;;;;;;;;;;;;;2073612;28;1274;-67
2021/08/26 05:40:12;;;;;;;;;;;;;;;;;;2069149;28;3823;-67
2021/08/26 05:41:12;;;;;;;;;;;;;;;;;;2076719;28;1530;-67
2021/08/26 05:42:13;;;;;;;;;;;;;;;;;;2079472;28;1926;-66
2021/08/26 05:43:15;;;;;;;;;;;;;;;;;;2069920;28;2710;-66
2021/08/26 05:44:15;;;;;;;;;;;;;;;;;;2072051;27;3745;-66
2021/08/26 05:45:16;;;;;;;;;;;;;;;;;;2070345;28;3804;-67
2021/08/26 05:46:16;;;;;;;;;;;;;;;;;;2077177;27;3637;-67
2021/08/26 05:47:17;;;;;;;;;;;;;;;;;;2078268;27;4593;-66
2021/08/26 05:48:17;;;;;;;;;;;;;;;;;;2074607;28;3668;-67
2021/08/26 05:49:19;;;;;;;;;;;;;;;;;;2078073;27;3124;-66
2021/08/26 05:50:19;;;;;;;;;;;;;;;;;;2068125;27;4023;-67
2021/08/26 05:51:20;;;;;;;;;;;;;;;;;;2073232;28;4331;-67
2021/08/26 05:52:20;;;;;;;;;;;;;;;;;;2076492;28;4129;-67
2021/08/26 05:53:21;;;;;;;;;;;;;;;;;;2072897;28;4241;-67
2021/08/26 05:54:21;;;;;;;;;;;;;;;;;;2076435;28;3501;-66
2021/08/26 05:55:22;;;;;;;;;;;;;;;;;;2078390;28;3862;-66
2021/08/26 05:56:23;;;;;;;;;;;;;;;;;;2077940;28;1025;-67
2021/08/26 05:57:24;;;;;;;;;;;;;;;;;;2079683;28;2343;-66
2021/08/26 05:58:24;;;;;;;;;;;;;;;;;;2073557;28;3933;-67
2021/08/26 05:59:25;;;;;;;;;;;;;;;;;;2077413;28;3981;-67
2021/08/26 06:00:26;;;;;;;;;;;;;;;;;;2069869;28;4440;-68
2021/08/26 06:01:27;;;;;;;;;;;;;;;;;;2077228;28;4632;-67
2021/08/26 06:02:27;;;;;;;;;;;;;;;;;;2080820;27;3816;-67
2021/08/26 06:03:28;;;;;;;;;;;;;;;;;;2076851;28;3865;-69
2021/08/26 06:04:28;;;;;;;;;;;;;;;;;;2079187;27;1136;-66
2021/08/26 06:05:29;;;;;;;;;;;;;;;;;;2074709;27;4014;-67
2021/08/26 06:06:29;;;;;;;;;;;;;;;;;;2076177;28;4321;-67
2021/08/26 06:07:31;;;;;;;;;;;;;;;;;;2074339;28;1061;-67
2021/08/26 06:08:32;;;;;;;;;;;;;;;;;;2077169;28;1062;-66
2021/08/26 06:09:32;;;;;;;;;;;;;;;;;;2075797;28;3350;-67
2021/08/26 06:10:33;;;;;;;;;;;;;;;;;;2072143;28;3834;-68
2021/08/26 06:11:34;;;;;;;;;;;;;;;;;;2073844;28;3634;-68
2021/08/26 06:12:35;;;;;;;;;;;;;;;;;;2079369;28;3225;-67
2021/08/26 06:13:35;;;;;;;;;;;;;;;;;;2078089;28;1179;-67
2021/08/26 06:14:36;;;;;;;;;;;;;;;;;;2075045;28;2107;-68
2021/08/26 06:15:37;;;;;;;;;;;;;;;;;;2077202;28;3211;-66
2021/08/26 06:16:38;;;;;;;;;;;;;;;;;;2077363;28;4052;-67
2021/08/26 06:17:38;;;;;;;;;;;;;;;;;;2078490;28;3721;-66
2021/08/26 06:18:39;;;;;;;;;;;;;;;;;;2074765;28;1225;-67
2021/08/26 06:19:39;;;;;;;;;;;;;;;;;;2083473;27;3383;-68
2021/08/26 06:20:42;;;;;;;;;;;;;;;;;;2073188;27;4169;-68
2021/08/26 06:21:42;;;;;;;;;;;;;;;;;;2077362;28;1236;-66
2021/08/26 06:22:43;;;;;;;;;;;;;;;;;;2077360;28;3607;-68
2021/08/26 06:23:44;;;;;;;;;;;;;;;;;;2078302;28;1032;-68
2021/08/26 06:24:44;;;;;;;;;;;;;;;;;;2077652;28;1791;-66
2021/08/26 06:25:45;;;;;;;;;;;;;;;;;;2078067;28;3930;-66
2021/08/26 06:26:45;;;;;;;;;;;;;;;;;;2076616;28;4350;-68
2021/08/26 06:27:46;;;;;;;;;;;;;;;;;;2078323;28;1009;-68
2021/08/26 06:28:46;;;;;;;;;;;;;;;;;;2071770;28;2388;-66
2021/08/26 06:29:51;;;;;;;;;;;;;;;;;;2073519;27;2988;-67
2021/08/26 06:30:51;;;;;;;;;;;;;;;;;;2072167;28;3683;-66
2021/08/26 06:31:52;;;;;;;;;;;;;;;;;;2077800;28;4112;-67
2021/08/26 06:32:52;;;;;;;;;;;;;;;;;;2077315;28;3815;-68
2021/08/26 06:33:53;;;;;;;;;;;;;;;;;;2077451;28;4222;-68
2021/08/26 06:34:53;;;;;;;;;;;;;;;;;;2077253;28;3853;-68
2021/08/26 06:35:54;;;;;;;;;;;;;;;;;;2077805;28;3694;-68
2021/08/26 06:36:55;;;;;;;;;;;;;;;;;;2077326;28;1062;-67
2021/08/26 06:37:56;;;;;;;;;;;;;;;;;;2078822;28;1540;-68
2021/08/26 06:38:58;;;;;;;;;;;;;;;;;;2078205;28;1153;-68
2021/08/26 06:40:00;;;;;;;;;;;;;;;;;;2071482;28;2998;-68
2021/08/26 06:41:00;;;;;;;;;;;;;;;;;;2075490;28;3596;-68
2021/08/26 06:42:01;;;;;;;;;;;;;;;;;;2077585;28;3396;-66
2021/08/26 06:43:02;;;;;;;;;;;;;;;;;;2071647;28;3864;-67
2021/08/26 06:44:02;;;;;;;;;;;;;;;;;;2076346;28;3824;-68
2021/08/26 06:45:03;;;;;;;;;;;;;;;;;;2071677;28;3945;-68
2021/08/26 06:46:04;;;;;;;;;;;;;;;;;;2077290;28;4164;-66
2021/08/26 06:47:04;;;;;;;;;;;;;;;;;;2067468;28;3900;-68
2021/08/26 06:48:09;;;;;;;;;;;;;;;;;;2075723;28;2386;-66
2021/08/26 06:49:10;;;;;;;;;;;;;;;;;;2079214;28;4226;-66
2021/08/26 06:50:10;;;;;;;;;;;;;;;;;;2069738;27;3502;-68
2021/08/26 06:51:11;;;;;;;;;;;;;;;;;;2072044;28;3880;-68
2021/08/26 06:52:12;;;;;;;;;;;;;;;;;;2078274;28;1334;-67
2021/08/26 06:53:13;;;;;;;;;;;;;;;;;;2077374;28;1268;-67
2021/08/26 06:54:13;;;;;;;;;;;;;;;;;;2070824;28;3919;-66
2021/08/26 06:55:14;;;;;;;;;;;;;;;;;;2076539;28;1232;-66
2021/08/26 06:56:15;;;;;;;;;;;;;;;;;;2065289;28;3838;-68
2021/08/26 06:57:16;;;;;;;;;;;;;;;;;;2074237;28;3757;-68
2021/08/26 06:58:16;;;;;;;;;;;;;;;;;;2078314;28;3749;-67
2021/08/26 06:59:17;;;;;;;;;;;;;;;;;;2078144;28;4015;-66
2021/08/26 07:00:17;;;;;;;;;;;;;;;;;;2069359;27;3910;-66
2021/08/26 07:01:19;;;;;;;;;;;;;;;;;;2076726;28;3988;-67
2021/08/26 07:02:19;;;;;;;;;;;;;;;;;;2076126;28;4385;-68
2021/08/26 07:03:20;;;;;;;;;;;;;;;;;;2075318;28;4318;-66
2021/08/26 07:04:20;;;;;;;;;;;;;;;;;;2074783;28;3726;-68
2021/08/26 07:05:21;;;;;;;;;;;;;;;;;;2075848;28;3788;-67
2021/08/26 07:06:22;;;;;;;;;;;;;;;;;;2077567;28;2674;-68
2021/08/26 07:07:22;;;;;;;;;;;;;;;;;;2078393;28;3755;-68
2021/08/26 07:08:23;;;;;;;;;;;;;;;;;;2072366;28;1184;-68
2021/08/26 07:09:24;;;;;;;;;;;;;;;;;;2077405;28;3975;-67
2021/08/26 07:10:25;;;;;;;;;;;;;;;;;;2072820;28;3956;-67
2021/08/26 07:11:26;;;;;;;;;;;;;;;;;;2078158;28;1291;-68
2021/08/26 07:12:30;;;;;;;;;;;;;;;;;;2071636;28;1143;-66
2021/08/26 07:13:31;;;;;;;;;;;;;;;;;;2076596;28;4002;-66
2021/08/26 07:14:31;;;;;;;;;;;;;;;;;;2072610;28;3887;-68
2021/08/26 07:15:32;;;;;;;;;;;;;;;;;;2071864;28;3961;-66